sensor_id;sensor_type;location;lat;lon;timestamp;pressure;altitude;pressure_sealevel;temperature;humidity
5356;BME280;70449;52.486;13.386;2023-07-31T00:00:44;100479.91;;;18.24;100.00
5356;BME280;70449;52.486;13.386;2023-07-31T00:03:12;100474.13;;;18.29;100.00
5356;BME280;70449;52.486;13.386;2023-07-31T00:05:39;100464.47;;;18.67;100.00
5356;BME280;70449;52.486;13.386;2023-07-31T00:08:06;100478.97;;;18.32;100.00
5356;BME280;70449;52.486;13.386;2023-07-31T00:10:34;100470.56;;;18.44;100.00
5356;BME280;70449;52.486;13.386;2023-07-31T00:13:01;100461.94;;;18.62;100.00
5356;BME280;70449;52.486;13.386;2023-07-31T00:15:30;100462.66;;;18.58;100.00
5356;BME280;70449;52.486;13.386;2023-07-31T00:17:57;100461.94;;;18.33;100.00
5356;BME280;70449;52.486;13.386;2023-07-31T00:20:24;100469.63;;;18.52;100.00
5356;BME280;70449;52.486;13.386;2023-07-31T00:22:51;100460.25;;;18.29;100.00
5356;BME280;70449;52.486;13.386;2023-07-31T00:25:18;100455.31;;;18.22;100.00
5356;BME280;70449;52.486;13.386;2023-07-31T00:27:46;100451.47;;;18.71;100.00
5356;BME280;70449;52.486;13.386;2023-07-31T00:30:13;100444.41;;;18.57;100.00
5356;BME280;70449;52.486;13.386;2023-07-31T00:32:42;100434.69;;;18.79;100.00
5356;BME280;70449;52.486;13.386;2023-07-31T00:35:09;100431.38;;;18.74;100.00
5356;BME280;70449;52.486;13.386;2023-07-31T00:37:36;100431.03;;;18.63;100.00
5356;BME280;70449;52.486;13.386;2023-07-31T00:40:04;100435.41;;;18.48;100.00
5356;BME280;70449;52.486;13.386;2023-07-31T00:42:32;100427.28;;;18.99;100.00
5356;BME280;70449;52.486;13.386;2023-07-31T00:44:59;100427.28;;;18.99;100.00
5356;BME280;70449;52.486;13.386;2023-07-31T00:47:26;100432.75;;;18.68;100.00
5356;BME280;70449;52.486;13.386;2023-07-31T00:49:55;100433.72;;;19.03;100.00
5356;BME280;70449;52.486;13.386;2023-07-31T00:52:22;100437.03;;;19.09;100.00
5356;BME280;70449;52.486;13.386;2023-07-31T00:54:49;100431.56;;;19.13;100.00
5356;BME280;70449;52.486;13.386;2023-07-31T00:57:17;100439.91;;;18.81;100.00
5356;BME280;70449;52.486;13.386;2023-07-31T00:59:44;100429.41;;;18.90;100.00
5356;BME280;70449;52.486;13.386;2023-07-31T01:02:12;100424.94;;;19.01;100.00
5356;BME280;70449;52.486;13.386;2023-07-31T01:04:39;100429.75;;;19.36;100.00
5356;BME280;70449;52.486;13.386;2023-07-31T01:07:15;100425.38;;;19.19;100.00
5356;BME280;70449;52.486;13.386;2023-07-31T01:09:53;100416.16;;;19.31;100.00
5356;BME280;70449;52.486;13.386;2023-07-31T01:12:27;100416.75;;;19.40;100.00
5356;BME280;70449;52.486;13.386;2023-07-31T01:15:04;100419.03;;;19.19;100.00
5356;BME280;70449;52.486;13.386;2023-07-31T01:17:31;100411.59;;;19.07;100.00
5356;BME280;70449;52.486;13.386;2023-07-31T01:20:03;100412.19;;;19.00;100.00
5356;BME280;70449;52.486;13.386;2023-07-31T01:22:49;100401.88;;;18.69;100.00
5356;BME280;70449;52.486;13.386;2023-07-31T01:28:14;100401.44;;;18.83;100.00
5356;BME280;70449;52.486;13.386;2023-07-31T01:30:47;100410.31;;;18.89;100.00
5356;BME280;70449;52.486;13.386;2023-07-31T01:33:16;100400.28;;;19.00;100.00
5356;BME280;70449;52.486;13.386;2023-07-31T01:35:45;100414.31;;;19.39;100.00
5356;BME280;70449;52.486;13.386;2023-07-31T01:38:13;100404.13;;;19.98;100.00
5356;BME280;70449;52.486;13.386;2023-07-31T01:40:42;100412.06;;;19.96;100.00
5356;BME280;70449;52.486;13.386;2023-07-31T01:43:10;100394.78;;;19.35;100.00
5356;BME280;70449;52.486;13.386;2023-07-31T01:45:39;100396.38;;;19.36;100.00
5356;BME280;70449;52.486;13.386;2023-07-31T01:48:06;100396.44;;;19.05;100.00
5356;BME280;70449;52.486;13.386;2023-07-31T01:50:33;100394.97;;;19.42;100.00
5356;BME280;70449;52.486;13.386;2023-07-31T01:53:00;100386.78;;;19.49;100.00
5356;BME280;70449;52.486;13.386;2023-07-31T01:55:28;100379.66;;;19.68;100.00
5356;BME280;70449;52.486;13.386;2023-07-31T01:57:55;100365.94;;;19.59;100.00
5356;BME280;70449;52.486;13.386;2023-07-31T02:00:23;100370.47;;;19.48;100.00
5356;BME280;70449;52.486;13.386;2023-07-31T02:02:51;100381.94;;;18.95;100.00
5356;BME280;70449;52.486;13.386;2023-07-31T02:05:18;100381.28;;;19.69;100.00
5356;BME280;70449;52.486;13.386;2023-07-31T02:07:45;100376.19;;;19.90;100.00
5356;BME280;70449;52.486;13.386;2023-07-31T02:10:12;100380.88;;;19.86;100.00
5356;BME280;70449;52.486;13.386;2023-07-31T02:12:39;100374.16;;;20.07;100.00
5356;BME280;70449;52.486;13.386;2023-07-31T02:15:07;100375.50;;;19.42;100.00
5356;BME280;70449;52.486;13.386;2023-07-31T02:17:36;100377.91;;;20.18;100.00
5356;BME280;70449;52.486;13.386;2023-07-31T02:20:05;100368.25;;;20.31;100.00
5356;BME280;70449;52.486;13.386;2023-07-31T02:22:32;100361.47;;;20.52;100.00
5356;BME280;70449;52.486;13.386;2023-07-31T02:24:59;100359.44;;;20.49;100.00
5356;BME280;70449;52.486;13.386;2023-07-31T02:27:26;100363.53;;;20.35;100.00
5356;BME280;70449;52.486;13.386;2023-07-31T02:29:53;100363.41;;;20.28;100.00
5356;BME280;70449;52.486;13.386;2023-07-31T02:32:21;100358.59;;;20.25;100.00
5356;BME280;70449;52.486;13.386;2023-07-31T02:34:50;100356.91;;;20.21;100.00
5356;BME280;70449;52.486;13.386;2023-07-31T02:37:17;100353.03;;;20.25;100.00
5356;BME280;70449;52.486;13.386;2023-07-31T02:39:44;100351.59;;;19.92;100.00
5356;BME280;70449;52.486;13.386;2023-07-31T02:42:12;100347.78;;;19.81;100.00
5356;BME280;70449;52.486;13.386;2023-07-31T02:44:39;100350.91;;;19.99;100.00
5356;BME280;70449;52.486;13.386;2023-07-31T02:47:06;100340.31;;;19.85;100.00
5356;BME280;70449;52.486;13.386;2023-07-31T02:49:33;100333.78;;;20.16;100.00
5356;BME280;70449;52.486;13.386;2023-07-31T02:52:02;100343.81;;;19.82;100.00
5356;BME280;70449;52.486;13.386;2023-07-31T02:54:30;100345.53;;;20.29;100.00
5356;BME280;70449;52.486;13.386;2023-07-31T02:56:57;100342.34;;;20.08;100.00
5356;BME280;70449;52.486;13.386;2023-07-31T02:59:24;100346.44;;;19.94;100.00
5356;BME280;70449;52.486;13.386;2023-07-31T03:01:52;100345.00;;;19.81;100.00
5356;BME280;70449;52.486;13.386;2023-07-31T03:04:19;100352.47;;;19.97;100.00
5356;BME280;70449;52.486;13.386;2023-07-31T03:06:46;100350.69;;;19.88;100.00
5356;BME280;70449;52.486;13.386;2023-07-31T03:09:15;100348.38;;;19.90;100.00
5356;BME280;70449;52.486;13.386;2023-07-31T03:11:42;100349.44;;;19.31;100.00
5356;BME280;70449;52.486;13.386;2023-07-31T03:14:09;100348.53;;;19.62;100.00
5356;BME280;70449;52.486;13.386;2023-07-31T03:16:37;100342.06;;;19.39;100.00
5356;BME280;70449;52.486;13.386;2023-07-31T03:19:04;100348.72;;;19.34;100.00
5356;BME280;70449;52.486;13.386;2023-07-31T03:21:31;100336.88;;;19.92;100.00
5356;BME280;70449;52.486;13.386;2023-07-31T03:23:58;100335.25;;;19.36;100.00
5356;BME280;70449;52.486;13.386;2023-07-31T03:26:27;100336.53;;;19.23;100.00
5356;BME280;70449;52.486;13.386;2023-07-31T03:28:55;100333.91;;;19.46;100.00
5356;BME280;70449;52.486;13.386;2023-07-31T03:31:23;100326.16;;;19.55;100.00
5356;BME280;70449;52.486;13.386;2023-07-31T03:33:50;100325.97;;;19.13;100.00
5356;BME280;70449;52.486;13.386;2023-07-31T03:36:17;100322.69;;;19.62;100.00
5356;BME280;70449;52.486;13.386;2023-07-31T03:38:44;100326.03;;;19.32;100.00
5356;BME280;70449;52.486;13.386;2023-07-31T03:41:11;100319.75;;;19.35;100.00
5356;BME280;70449;52.486;13.386;2023-07-31T03:43:40;100323.19;;;19.29;100.00
5356;BME280;70449;52.486;13.386;2023-07-31T03:46:07;100327.59;;;19.14;100.00
5356;BME280;70449;52.486;13.386;2023-07-31T03:48:34;100312.25;;;19.20;100.00
5356;BME280;70449;52.486;13.386;2023-07-31T03:51:01;100311.66;;;19.11;100.00
5356;BME280;70449;52.486;13.386;2023-07-31T03:53:28;100311.09;;;19.21;100.00
5356;BME280;70449;52.486;13.386;2023-07-31T03:55:55;100315.28;;;18.95;100.00
5356;BME280;70449;52.486;13.386;2023-07-31T03:58:23;100311.97;;;18.74;100.00
5356;BME280;70449;52.486;13.386;2023-07-31T04:00:53;100316.81;;;18.93;100.00
5356;BME280;70449;52.486;13.386;2023-07-31T04:03:21;100310.75;;;19.07;100.00
5356;BME280;70449;52.486;13.386;2023-07-31T04:05:48;100316.81;;;19.28;100.00
5356;BME280;70449;52.486;13.386;2023-07-31T04:08:15;100308.81;;;18.91;100.00
5356;BME280;70449;52.486;13.386;2023-07-31T04:10:43;100302.22;;;19.15;100.00
5356;BME280;70449;52.486;13.386;2023-07-31T04:13:10;100307.03;;;18.83;100.00
5356;BME280;70449;52.486;13.386;2023-07-31T04:15:37;100309.16;;;19.06;100.00
5356;BME280;70449;52.486;13.386;2023-07-31T04:18:06;100307.63;;;18.92;100.00
5356;BME280;70449;52.486;13.386;2023-07-31T04:20:33;100305.38;;;19.14;100.00
5356;BME280;70449;52.486;13.386;2023-07-31T04:23:01;100305.13;;;19.03;100.00
5356;BME280;70449;52.486;13.386;2023-07-31T04:25:28;100296.66;;;19.15;100.00
5356;BME280;70449;52.486;13.386;2023-07-31T04:27:55;100296.91;;;18.91;100.00
5356;BME280;70449;52.486;13.386;2023-07-31T04:30:22;100288.13;;;19.24;100.00
5356;BME280;70449;52.486;13.386;2023-07-31T04:32:50;100285.00;;;18.90;100.00
5356;BME280;70449;52.486;13.386;2023-07-31T04:35:19;100289.09;;;19.32;100.00
5356;BME280;70449;52.486;13.386;2023-07-31T04:37:46;100289.66;;;18.86;100.00
5356;BME280;70449;52.486;13.386;2023-07-31T04:40:15;100287.66;;;19.02;100.00
5356;BME280;70449;52.486;13.386;2023-07-31T04:42:42;100286.25;;;18.77;100.00
5356;BME280;70449;52.486;13.386;2023-07-31T04:45:10;100290.38;;;18.83;100.00
5356;BME280;70449;52.486;13.386;2023-07-31T04:47:37;100281.53;;;19.13;100.00
5356;BME280;70449;52.486;13.386;2023-07-31T04:50:05;100271.22;;;19.48;100.00
5356;BME280;70449;52.486;13.386;2023-07-31T04:52:34;100280.50;;;19.37;100.00
5356;BME280;70449;52.486;13.386;2023-07-31T04:55:01;100274.28;;;19.82;100.00
5356;BME280;70449;52.486;13.386;2023-07-31T04:57:29;100282.00;;;19.54;100.00
5356;BME280;70449;52.486;13.386;2023-07-31T04:59:56;100276.22;;;19.23;100.00
5356;BME280;70449;52.486;13.386;2023-07-31T05:02:23;100281.59;;;19.52;100.00
5356;BME280;70449;52.486;13.386;2023-07-31T05:04:50;100277.91;;;19.28;100.00
5356;BME280;70449;52.486;13.386;2023-07-31T05:07:18;100270.19;;;19.76;100.00
5356;BME280;70449;52.486;13.386;2023-07-31T05:09:46;100269.00;;;19.58;100.00
5356;BME280;70449;52.486;13.386;2023-07-31T05:12:13;100279.31;;;19.38;100.00
5356;BME280;70449;52.486;13.386;2023-07-31T05:14:41;100264.28;;;19.78;100.00
5356;BME280;70449;52.486;13.386;2023-07-31T05:17:08;100271.66;;;19.70;100.00
5356;BME280;70449;52.486;13.386;2023-07-31T05:19:35;100276.06;;;19.16;100.00
5356;BME280;70449;52.486;13.386;2023-07-31T05:22:02;100276.47;;;19.34;100.00
5356;BME280;70449;52.486;13.386;2023-07-31T05:24:30;100269.44;;;19.40;100.00
5356;BME280;70449;52.486;13.386;2023-07-31T05:26:58;100265.44;;;19.77;100.00
5356;BME280;70449;52.486;13.386;2023-07-31T05:29:25;100276.25;;;19.62;100.00
5356;BME280;70449;52.486;13.386;2023-07-31T05:31:53;100267.25;;;19.49;100.00
5356;BME280;70449;52.486;13.386;2023-07-31T05:34:20;100268.34;;;19.64;100.00
5356;BME280;70449;52.486;13.386;2023-07-31T05:36:47;100264.75;;;19.64;100.00
5356;BME280;70449;52.486;13.386;2023-07-31T05:39:14;100271.63;;;19.31;100.00
5356;BME280;70449;52.486;13.386;2023-07-31T05:41:41;100272.81;;;19.49;100.00
5356;BME280;70449;52.486;13.386;2023-07-31T05:44:10;100263.50;;;19.61;100.00
5356;BME280;70449;52.486;13.386;2023-07-31T05:46:37;100256.88;;;19.85;100.00
5356;BME280;70449;52.486;13.386;2023-07-31T05:49:04;100260.75;;;20.23;100.00
5356;BME280;70449;52.486;13.386;2023-07-31T05:51:31;100258.75;;;20.01;100.00
5356;BME280;70449;52.486;13.386;2023-07-31T05:53:58;100250.16;;;19.86;100.00
5356;BME280;70449;52.486;13.386;2023-07-31T05:56:26;100253.91;;;19.98;100.00
5356;BME280;70449;52.486;13.386;2023-07-31T05:58:54;100248.47;;;19.82;100.00
5356;BME280;70449;52.486;13.386;2023-07-31T06:01:24;100250.28;;;19.74;100.00
5356;BME280;70449;52.486;13.386;2023-07-31T06:03:51;100252.31;;;19.97;100.00
5356;BME280;70449;52.486;13.386;2023-07-31T06:06:18;100251.75;;;19.68;100.00
5356;BME280;70449;52.486;13.386;2023-07-31T06:08:49;100253.22;;;19.81;100.00
5356;BME280;70449;52.486;13.386;2023-07-31T06:11:16;100247.94;;;19.76;100.00
5356;BME280;70449;52.486;13.386;2023-07-31T06:13:44;100248.56;;;19.66;100.00
5356;BME280;70449;52.486;13.386;2023-07-31T06:16:12;100245.88;;;19.54;100.00
5356;BME280;70449;52.486;13.386;2023-07-31T06:18:41;100242.78;;;19.98;100.00
5356;BME280;70449;52.486;13.386;2023-07-31T06:21:08;100247.88;;;20.15;100.00
5356;BME280;70449;52.486;13.386;2023-07-31T06:23:36;100242.22;;;19.88;100.00
5356;BME280;70449;52.486;13.386;2023-07-31T06:26:03;100247.66;;;19.42;100.00
5356;BME280;70449;52.486;13.386;2023-07-31T06:28:31;100243.00;;;19.66;100.00
5356;BME280;70449;52.486;13.386;2023-07-31T06:30:59;100241.47;;;19.91;100.00
5356;BME280;70449;52.486;13.386;2023-07-31T06:33:26;100248.78;;;20.00;100.00
5356;BME280;70449;52.486;13.386;2023-07-31T06:35:55;100244.59;;;19.86;100.00
5356;BME280;70449;52.486;13.386;2023-07-31T06:38:24;100242.53;;;19.83;100.00
5356;BME280;70449;52.486;13.386;2023-07-31T06:40:52;100247.22;;;19.79;100.00
5356;BME280;70449;52.486;13.386;2023-07-31T06:43:20;100239.09;;;20.13;100.00
5356;BME280;70449;52.486;13.386;2023-07-31T06:45:47;100246.34;;;19.75;100.00
5356;BME280;70449;52.486;13.386;2023-07-31T06:48:17;100249.97;;;19.99;100.00
5356;BME280;70449;52.486;13.386;2023-07-31T06:50:44;100238.88;;;19.60;100.00
5356;BME280;70449;52.486;13.386;2023-07-31T06:53:13;100243.47;;;19.52;100.00
5356;BME280;70449;52.486;13.386;2023-07-31T06:55:40;100249.09;;;19.56;100.00
5356;BME280;70449;52.486;13.386;2023-07-31T06:58:10;100245.63;;;19.78;100.00
5356;BME280;70449;52.486;13.386;2023-07-31T07:00:38;100247.47;;;19.93;100.00
5356;BME280;70449;52.486;13.386;2023-07-31T07:03:05;100240.91;;;19.82;100.00
5356;BME280;70449;52.486;13.386;2023-07-31T07:05:32;100244.84;;;20.01;100.00
5356;BME280;70449;52.486;13.386;2023-07-31T07:08:00;100241.66;;;19.79;100.00
5356;BME280;70449;52.486;13.386;2023-07-31T07:10:28;100247.03;;;19.91;100.00
5356;BME280;70449;52.486;13.386;2023-07-31T07:12:56;100243.78;;;19.66;100.00
5356;BME280;70449;52.486;13.386;2023-07-31T07:15:23;100252.69;;;19.37;100.00
5356;BME280;70449;52.486;13.386;2023-07-31T07:17:50;100255.59;;;19.24;100.00
5356;BME280;70449;52.486;13.386;2023-07-31T07:20:18;100251.13;;;19.20;100.00
5356;BME280;70449;52.486;13.386;2023-07-31T07:22:46;100257.16;;;19.61;100.00
5356;BME280;70449;52.486;13.386;2023-07-31T07:25:13;100251.84;;;19.72;100.00
5356;BME280;70449;52.486;13.386;2023-07-31T07:27:41;100251.75;;;19.68;100.00
5356;BME280;70449;52.486;13.386;2023-07-31T07:30:10;100251.16;;;19.78;100.00
5356;BME280;70449;52.486;13.386;2023-07-31T07:32:37;100256.84;;;20.05;100.00
5356;BME280;70449;52.486;13.386;2023-07-31T07:35:06;100248.56;;;20.31;100.00
5356;BME280;70449;52.486;13.386;2023-07-31T07:37:33;100235.13;;;20.14;100.00
5356;BME280;70449;52.486;13.386;2023-07-31T07:40:04;100242.78;;;19.98;100.00
5356;BME280;70449;52.486;13.386;2023-07-31T07:42:32;100231.84;;;20.08;100.00
5356;BME280;70449;52.486;13.386;2023-07-31T07:45:01;100247.31;;;20.06;100.00
5356;BME280;70449;52.486;13.386;2023-07-31T07:47:28;100237.34;;;20.05;100.00
5356;BME280;70449;52.486;13.386;2023-07-31T07:49:56;100228.28;;;20.54;100.00
5356;BME280;70449;52.486;13.386;2023-07-31T07:52:23;100236.13;;;20.71;100.00
5356;BME280;70449;52.486;13.386;2023-07-31T07:54:50;100234.66;;;20.81;100.00
5356;BME280;70449;52.486;13.386;2023-07-31T07:57:18;100224.34;;;20.35;100.00
5356;BME280;70449;52.486;13.386;2023-07-31T07:59:45;100223.94;;;19.68;100.00
5356;BME280;70449;52.486;13.386;2023-07-31T08:02:14;100232.78;;;20.16;100.00
5356;BME280;70449;52.486;13.386;2023-07-31T08:04:44;100230.84;;;19.97;100.00
5356;BME280;70449;52.486;13.386;2023-07-31T08:07:11;100222.34;;;19.67;100.00
5356;BME280;70449;52.486;13.386;2023-07-31T08:09:39;100227.50;;;19.88;100.00
5356;BME280;70449;52.486;13.386;2023-07-31T08:12:07;100227.91;;;19.67;100.00
5356;BME280;70449;52.486;13.386;2023-07-31T08:14:34;100219.63;;;19.70;100.00
5356;BME280;70449;52.486;13.386;2023-07-31T08:17:03;100220.78;;;20.12;100.00
5356;BME280;70449;52.486;13.386;2023-07-31T08:19:31;100222.16;;;19.99;100.00
5356;BME280;70449;52.486;13.386;2023-07-31T08:21:59;100217.50;;;19.83;100.00
5356;BME280;70449;52.486;13.386;2023-07-31T08:24:26;100212.25;;;19.78;100.00
5356;BME280;70449;52.486;13.386;2023-07-31T08:26:53;100219.13;;;19.45;100.00
5356;BME280;70449;52.486;13.386;2023-07-31T08:29:21;100210.53;;;20.16;100.00
5356;BME280;70449;52.486;13.386;2023-07-31T08:31:48;100209.31;;;19.52;100.00
5356;BME280;70449;52.486;13.386;2023-07-31T08:34:15;100208.94;;;19.73;100.00
5356;BME280;70449;52.486;13.386;2023-07-31T08:36:44;100219.34;;;19.76;100.00
5356;BME280;70449;52.486;13.386;2023-07-31T08:39:11;100221.59;;;19.31;100.00
5356;BME280;70449;52.486;13.386;2023-07-31T08:41:39;100221.25;;;19.94;100.00
5356;BME280;70449;52.486;13.386;2023-07-31T08:44:07;100219.78;;;19.78;100.00
5356;BME280;70449;52.486;13.386;2023-07-31T08:46:35;100222.84;;;19.73;100.00
5356;BME280;70449;52.486;13.386;2023-07-31T08:49:04;100221.03;;;20.26;100.00
5356;BME280;70449;52.486;13.386;2023-07-31T08:51:34;100219.81;;;20.50;100.00
5356;BME280;70449;52.486;13.386;2023-07-31T08:54:03;100212.13;;;20.90;100.00
5356;BME280;70449;52.486;13.386;2023-07-31T08:56:33;100214.09;;;20.39;100.00
5356;BME280;70449;52.486;13.386;2023-07-31T08:59:02;100214.22;;;20.47;100.00
5356;BME280;70449;52.486;13.386;2023-07-31T09:01:31;100208.84;;;20.34;100.00
5356;BME280;70449;52.486;13.386;2023-07-31T09:04:03;100210.38;;;20.32;100.00
5356;BME280;70449;52.486;13.386;2023-07-31T09:06:32;100205.84;;;20.47;100.00
5356;BME280;70449;52.486;13.386;2023-07-31T09:09:01;100212.22;;;20.70;100.00
5356;BME280;70449;52.486;13.386;2023-07-31T09:11:30;100203.88;;;20.47;100.00
5356;BME280;70449;52.486;13.386;2023-07-31T09:13:57;100213.47;;;20.50;100.00
5356;BME280;70449;52.486;13.386;2023-07-31T09:16:28;100215.44;;;20.72;100.00
5356;BME280;70449;52.486;13.386;2023-07-31T09:19:01;100205.22;;;20.30;100.00
5356;BME280;70449;52.486;13.386;2023-07-31T09:21:29;100207.66;;;20.35;100.00
5356;BME280;70449;52.486;13.386;2023-07-31T09:23:58;100209.56;;;20.77;100.00
5356;BME280;70449;52.486;13.386;2023-07-31T09:26:33;100214.41;;;20.34;100.00
5356;BME280;70449;52.486;13.386;2023-07-31T09:29:01;100209.91;;;19.80;100.00
5356;BME280;70449;52.486;13.386;2023-07-31T09:31:38;100213.31;;;20.16;100.00
5356;BME280;70449;52.486;13.386;2023-07-31T09:34:07;100204.63;;;19.36;100.00
5356;BME280;70449;52.486;13.386;2023-07-31T09:36:40;100207.25;;;19.68;100.00
5356;BME280;70449;52.486;13.386;2023-07-31T09:39:09;100204.38;;;20.30;100.00
5356;BME280;70449;52.486;13.386;2023-07-31T09:41:40;100205.31;;;20.37;100.00
5356;BME280;70449;52.486;13.386;2023-07-31T09:44:08;100211.88;;;20.26;100.00
5356;BME280;70449;52.486;13.386;2023-07-31T09:46:37;100209.66;;;20.12;100.00
5356;BME280;70449;52.486;13.386;2023-07-31T09:49:08;100208.06;;;20.11;100.00
5356;BME280;70449;52.486;13.386;2023-07-31T09:51:36;100212.03;;;20.10;100.00
5356;BME280;70449;52.486;13.386;2023-07-31T09:54:10;100203.34;;;20.15;100.00
5356;BME280;70449;52.486;13.386;2023-07-31T09:56:43;100197.38;;;20.13;100.00
5356;BME280;70449;52.486;13.386;2023-07-31T09:59:13;100204.03;;;20.08;100.00
5356;BME280;70449;52.486;13.386;2023-07-31T10:01:41;100201.28;;;20.58;100.00
5356;BME280;70449;52.486;13.386;2023-07-31T10:04:10;100194.94;;;20.34;100.00
5356;BME280;70449;52.486;13.386;2023-07-31T10:06:39;100185.59;;;21.03;100.00
5356;BME280;70449;52.486;13.386;2023-07-31T10:09:09;100178.34;;;20.95;100.00
5356;BME280;70449;52.486;13.386;2023-07-31T10:11:45;100190.72;;;20.71;100.00
5356;BME280;70449;52.486;13.386;2023-07-31T10:14:17;100190.38;;;20.72;100.00
5356;BME280;70449;52.486;13.386;2023-07-31T10:16:45;100188.50;;;21.10;100.00
5356;BME280;70449;52.486;13.386;2023-07-31T10:19:12;100183.97;;;20.45;100.00
5356;BME280;70449;52.486;13.386;2023-07-31T10:21:40;100179.53;;;20.67;100.00
5356;BME280;70449;52.486;13.386;2023-07-31T10:24:09;100183.78;;;20.84;100.00
5356;BME280;70449;52.486;13.386;2023-07-31T10:26:38;100189.94;;;20.70;100.00
5356;BME280;70449;52.486;13.386;2023-07-31T10:29:07;100182.31;;;20.94;100.00
5356;BME280;70449;52.486;13.386;2023-07-31T10:31:35;100181.06;;;20.61;100.00
5356;BME280;70449;52.486;13.386;2023-07-31T10:34:03;100162.34;;;20.61;100.00
5356;BME280;70449;52.486;13.386;2023-07-31T10:36:31;100170.31;;;21.20;100.00
5356;BME280;70449;52.486;13.386;2023-07-31T10:38:58;100170.63;;;21.15;100.00
5356;BME280;70449;52.486;13.386;2023-07-31T10:41:30;100161.81;;;21.09;100.00
5356;BME280;70449;52.486;13.386;2023-07-31T10:43:59;100155.66;;;21.26;100.00
5356;BME280;70449;52.486;13.386;2023-07-31T10:46:28;100153.06;;;21.82;100.00
5356;BME280;70449;52.486;13.386;2023-07-31T10:49:00;100153.63;;;22.42;100.00
5356;BME280;70449;52.486;13.386;2023-07-31T10:51:33;100137.03;;;22.71;100.00
5356;BME280;70449;52.486;13.386;2023-07-31T10:54:11;100136.31;;;22.85;100.00
5356;BME280;70449;52.486;13.386;2023-07-31T10:56:40;100131.47;;;22.75;100.00
5356;BME280;70449;52.486;13.386;2023-07-31T10:59:11;100131.16;;;22.25;100.00
5356;BME280;70449;52.486;13.386;2023-07-31T11:01:54;100104.84;;;22.95;100.00
5356;BME280;70449;52.486;13.386;2023-07-31T11:04:24;100108.53;;;23.21;100.00
5356;BME280;70449;52.486;13.386;2023-07-31T11:06:58;100113.00;;;23.43;100.00
5356;BME280;70449;52.486;13.386;2023-07-31T11:09:28;100106.75;;;22.84;100.00
5356;BME280;70449;52.486;13.386;2023-07-31T11:11:58;100109.84;;;22.61;100.00
5356;BME280;70449;52.486;13.386;2023-07-31T11:14:26;100102.59;;;21.94;100.00
5356;BME280;70449;52.486;13.386;2023-07-31T11:16:54;100116.53;;;21.94;100.00
5356;BME280;70449;52.486;13.386;2023-07-31T11:19:22;100117.47;;;22.12;100.00
5356;BME280;70449;52.486;13.386;2023-07-31T11:21:51;100108.25;;;22.63;100.00
5356;BME280;70449;52.486;13.386;2023-07-31T11:24:19;100102.78;;;22.85;100.00
5356;BME280;70449;52.486;13.386;2023-07-31T11:26:50;100104.38;;;22.86;100.00
5356;BME280;70449;52.486;13.386;2023-07-31T11:29:18;100097.97;;;22.82;100.00
5356;BME280;70449;52.486;13.386;2023-07-31T11:31:47;100103.69;;;23.11;100.00
5356;BME280;70449;52.486;13.386;2023-07-31T11:34:16;100095.16;;;22.75;100.00
5356;BME280;70449;52.486;13.386;2023-07-31T11:36:53;100097.78;;;22.46;100.00
5356;BME280;70449;52.486;13.386;2023-07-31T11:39:21;100110.25;;;22.63;100.00
5356;BME280;70449;52.486;13.386;2023-07-31T11:41:48;100115.06;;;22.70;100.00
5356;BME280;70449;52.486;13.386;2023-07-31T11:44:15;100115.56;;;22.86;100.00
5356;BME280;70449;52.486;13.386;2023-07-31T11:46:43;100113.91;;;22.71;100.00
5356;BME280;70449;52.486;13.386;2023-07-31T11:49:10;100122.03;;;23.04;100.00
5356;BME280;70449;52.486;13.386;2023-07-31T11:51:39;100107.81;;;23.52;100.00
5356;BME280;70449;52.486;13.386;2023-07-31T11:54:06;100097.72;;;23.12;100.00
5356;BME280;70449;52.486;13.386;2023-07-31T11:56:34;100107.69;;;23.06;100.00
5356;BME280;70449;52.486;13.386;2023-07-31T11:59:02;100109.94;;;22.79;100.00
5356;BME280;70449;52.486;13.386;2023-07-31T12:01:34;100095.66;;;22.95;100.00
5356;BME280;70449;52.486;13.386;2023-07-31T12:04:02;100092.91;;;23.09;100.00
5356;BME280;70449;52.486;13.386;2023-07-31T12:06:38;100098.13;;;23.14;100.00
5356;BME280;70449;52.486;13.386;2023-07-31T12:09:06;100090.88;;;22.95;100.00
5356;BME280;70449;52.486;13.386;2023-07-31T12:11:43;100098.66;;;22.57;100.00
5356;BME280;70449;52.486;13.386;2023-07-31T12:14:20;100083.75;;;23.12;100.00
5356;BME280;70449;52.486;13.386;2023-07-31T12:16:52;100085.47;;;23.67;100.00
5356;BME280;70449;52.486;13.386;2023-07-31T12:19:22;100076.69;;;23.86;100.00
5356;BME280;70449;52.486;13.386;2023-07-31T12:21:51;100084.63;;;23.48;100.00
5356;BME280;70449;52.486;13.386;2023-07-31T12:24:19;100075.72;;;22.96;100.00
5356;BME280;70449;52.486;13.386;2023-07-31T12:26:48;100079.84;;;22.47;100.00
5356;BME280;70449;52.486;13.386;2023-07-31T12:29:16;100096.72;;;22.72;100.00
5356;BME280;70449;52.486;13.386;2023-07-31T12:31:43;100076.59;;;23.29;100.00
5356;BME280;70449;52.486;13.386;2023-07-31T12:34:17;100077.50;;;23.76;100.00
5356;BME280;70449;52.486;13.386;2023-07-31T12:36:47;100079.03;;;23.48;100.00
5356;BME280;70449;52.486;13.386;2023-07-31T12:39:16;100061.44;;;23.44;100.00
5356;BME280;70449;52.486;13.386;2023-07-31T12:41:43;100066.69;;;23.89;100.00
5356;BME280;70449;52.486;13.386;2023-07-31T12:44:11;100059.88;;;23.86;100.00
5356;BME280;70449;52.486;13.386;2023-07-31T12:46:38;100050.28;;;23.94;100.00
5356;BME280;70449;52.486;13.386;2023-07-31T12:49:05;100062.25;;;23.41;100.00